createdAt,value
2018-05-27T00:01:14.076Z,97791
2018-05-27T00:03:54.965Z,97792
2018-05-27T00:06:36.103Z,97789
2018-05-27T00:09:16.429Z,97784
2018-05-27T00:11:56.816Z,97780
2018-05-27T00:14:37.144Z,97782
2018-05-27T00:17:17.766Z,97786
2018-05-27T00:19:58.684Z,97783
2018-05-27T00:22:39.789Z,97790
2018-05-27T00:25:20.095Z,97787
2018-05-27T00:28:00.426Z,97796
2018-05-27T00:30:40.846Z,97798
2018-05-27T00:33:21.829Z,97797
2018-05-27T00:36:02.900Z,97799
2018-05-27T00:38:43.997Z,97804
2018-05-27T00:41:25.893Z,97810
2018-05-27T00:44:06.165Z,97798
2018-05-27T00:46:46.487Z,97806
2018-05-27T00:49:27.709Z,97803
2018-05-27T00:52:08.073Z,97806
2018-05-27T00:54:48.776Z,97798
2018-05-27T00:57:29.300Z,97801
2018-05-27T01:00:09.645Z,97796
2018-05-27T01:02:49.984Z,97798
2018-05-27T01:05:31.195Z,97802
2018-05-27T01:08:11.651Z,97799
2018-05-27T01:10:52.037Z,97788
2018-05-27T01:13:32.494Z,97791
2018-05-27T01:16:12.956Z,97791
2018-05-27T01:18:54.924Z,97791
2018-05-27T01:21:35.436Z,97794
2018-05-27T01:24:15.744Z,97784
2018-05-27T01:26:56.600Z,97792
2018-05-27T01:29:36.977Z,97786
2018-05-27T01:32:17.344Z,97790
2018-05-27T01:34:58.232Z,97787
2018-05-27T01:37:38.717Z,97792
2018-05-27T01:40:19.041Z,97797
2018-05-27T01:43:00.147Z,97793
2018-05-27T01:45:40.593Z,97784
2018-05-27T01:48:20.896Z,97796
2018-05-27T01:51:01.069Z,97789
2018-05-27T01:53:42.454Z,97787
2018-05-27T01:56:22.777Z,97790
2018-05-27T02:02:26.277Z,97789
2018-05-27T02:05:06.577Z,97800
2018-05-27T02:07:46.788Z,97792
2018-05-27T02:10:27.312Z,97799
2018-05-27T02:13:07.500Z,97791
2018-05-27T02:15:47.708Z,97789
2018-05-27T02:18:28.293Z,97799
2018-05-27T02:21:09.424Z,97791
2018-05-27T02:23:49.749Z,97790
2018-05-27T02:26:30.478Z,97784
2018-05-27T02:29:10.801Z,97786
2018-05-27T02:31:51.225Z,97786
2018-05-27T02:34:31.522Z,97786
2018-05-27T02:37:11.765Z,97794
2018-05-27T02:39:53.131Z,97801
2018-05-27T02:42:34.166Z,97790
2018-05-27T02:45:14.605Z,97801
2018-05-27T02:47:55.911Z,97787
2018-05-27T02:50:36.410Z,97800
2018-05-27T02:53:16.749Z,97799
2018-05-27T02:55:57.381Z,97801
2018-05-27T02:58:37.577Z,97806
2018-05-27T03:01:18.019Z,97807
2018-05-27T03:03:58.185Z,97808
2018-05-27T03:06:38.680Z,97804
2018-05-27T03:09:18.997Z,97805
2018-05-27T03:11:59.502Z,97812
2018-05-27T03:14:39.821Z,97805
2018-05-27T03:17:20.286Z,97803
2018-05-27T03:20:01.995Z,97800
2018-05-27T03:22:42.394Z,97796
2018-05-27T03:25:23.562Z,97797
2018-05-27T03:28:04.496Z,97798
2018-05-27T03:30:44.874Z,97792
2018-05-27T03:33:25.356Z,97791
2018-05-27T03:36:05.882Z,97796
2018-05-27T03:38:46.389Z,97798
2018-05-27T03:41:27.044Z,97800
2018-05-27T03:44:07.521Z,97798
2018-05-27T03:46:47.839Z,97798
2018-05-27T03:49:28.344Z,97796
2018-05-27T03:52:08.852Z,97798
2018-05-27T03:54:49.347Z,97798
2018-05-27T03:57:29.692Z,97805
2018-05-27T04:00:10.356Z,97798
2018-05-27T04:02:50.656Z,97801
2018-05-27T04:05:48.944Z,97807
2018-05-27T04:08:34.885Z,97799
2018-05-27T04:11:15.349Z,97795
2018-05-27T04:13:56.600Z,97797
2018-05-27T04:16:36.952Z,97789
2018-05-27T04:19:17.297Z,97804
2018-05-27T04:21:57.645Z,97803
2018-05-27T04:24:38.067Z,97812
2018-05-27T04:27:18.500Z,97808
2018-05-27T04:29:58.892Z,97812
2018-05-27T04:32:39.395Z,97815
2018-05-27T04:35:19.897Z,97811
2018-05-27T04:38:00.194Z,97805
2018-05-27T04:40:40.500Z,97801
2018-05-27T04:43:20.869Z,97797
2018-05-27T04:46:01.211Z,97803
2018-05-27T04:48:41.585Z,97799
2018-05-27T04:51:23.343Z,97806
2018-05-27T04:54:04.476Z,97804
2018-05-27T04:56:44.980Z,97806
2018-05-27T04:59:26.085Z,97806
2018-05-27T05:02:06.471Z,97802
2018-05-27T05:04:46.774Z,97799
2018-05-27T05:07:27.547Z,97799
2018-05-27T05:10:07.906Z,97800
2018-05-27T05:12:48.389Z,97808
2018-05-27T05:15:28.992Z,97797
2018-05-27T05:18:09.340Z,97809
2018-05-27T05:20:49.814Z,97806
2018-05-27T05:23:31.238Z,97804
2018-05-27T05:26:11.581Z,97819
2018-05-27T05:28:52.392Z,97804
2018-05-27T05:31:33.404Z,97801
2018-05-27T05:34:13.789Z,97807
2018-05-27T05:36:54.312Z,97802
2018-05-27T05:39:34.560Z,97804
2018-05-27T05:42:15.036Z,97808
2018-05-27T05:44:55.962Z,97802
2018-05-27T05:47:37.219Z,97801
2018-05-27T05:50:17.524Z,97810
2018-05-27T05:52:58.888Z,97806
2018-05-27T05:55:39.233Z,97809
2018-05-27T05:58:19.700Z,97813
2018-05-27T06:01:00.269Z,97813
2018-05-27T06:03:40.663Z,97801
2018-05-27T06:06:20.973Z,97813
2018-05-27T06:09:01.393Z,97820
2018-05-27T06:11:43.004Z,97819
2018-05-27T06:14:24.255Z,97819
2018-05-27T06:17:04.566Z,97820
2018-05-27T06:19:44.910Z,97816
2018-05-27T06:22:25.964Z,97826
2018-05-27T06:25:06.312Z,97826
2018-05-27T06:27:46.604Z,97822
2018-05-27T06:30:27.545Z,97825
2018-05-27T06:33:07.853Z,97830
2018-05-27T06:35:48.178Z,97823
2018-05-27T06:38:28.549Z,97827
2018-05-27T06:41:09.158Z,97826
2018-05-27T06:43:49.476Z,97833
2018-05-27T06:46:29.933Z,97826
2018-05-27T06:49:11.016Z,97830
2018-05-27T06:51:51.469Z,97829
2018-05-27T06:54:32.022Z,97827
2018-05-27T06:57:12.469Z,97825
2018-05-27T06:59:54.389Z,97823
2018-05-27T07:02:35.651Z,97821
2018-05-27T07:05:16.745Z,97815
2018-05-27T07:07:57.336Z,97812
2018-05-27T07:10:37.823Z,97815
2018-05-27T07:13:18.189Z,97815
2018-05-27T07:15:58.697Z,97820
2018-05-27T07:18:39.064Z,97820
2018-05-27T07:21:19.436Z,97816
2018-05-27T07:23:59.944Z,97817
2018-05-27T07:26:40.243Z,97818
2018-05-27T07:29:20.686Z,97821
2018-05-27T07:32:01.604Z,97824
2018-05-27T07:34:42.362Z,97814
2018-05-27T07:37:23.532Z,97824
2018-05-27T07:40:04.313Z,97825
2018-05-27T07:42:44.669Z,97819
2018-05-27T07:45:26.397Z,97825
2018-05-27T07:48:07.657Z,97828
2018-05-27T07:50:48.439Z,97825
2018-05-27T07:53:28.869Z,97828
2018-05-27T07:56:10.000Z,97825
2018-05-27T07:58:50.428Z,97825
2018-05-27T08:01:31.673Z,97827
2018-05-27T08:04:11.989Z,97834
2018-05-27T08:06:52.948Z,97833
2018-05-27T08:09:33.321Z,97833
2018-05-27T08:12:13.752Z,97841
2018-05-27T08:14:54.484Z,97841
2018-05-27T08:17:34.975Z,97835
2018-05-27T08:20:15.283Z,97843
2018-05-27T08:22:56.736Z,97841
2018-05-27T08:25:37.932Z,97837
2018-05-27T08:28:18.297Z,97842
2018-05-27T08:30:58.636Z,97845
2018-05-27T08:33:38.965Z,97843
2018-05-27T08:36:19.320Z,97839
2018-05-27T08:38:59.669Z,97845
2018-05-27T08:41:40.108Z,97844
2018-05-27T08:44:20.490Z,97855
2018-05-27T08:47:04.743Z,97844
2018-05-27T08:49:45.184Z,97844
2018-05-27T08:52:26.458Z,97851
2018-05-27T08:55:07.013Z,97858
2018-05-27T08:57:47.441Z,97850
2018-05-27T09:00:27.768Z,97855
2018-05-27T09:03:08.256Z,97858
2018-05-27T09:05:48.943Z,97853
2018-05-27T09:08:29.355Z,97857
2018-05-27T09:11:15.473Z,97854
2018-05-27T09:13:56.237Z,97861
2018-05-27T09:16:36.708Z,97850
2018-05-27T09:19:18.605Z,97857
2018-05-27T09:21:58.975Z,97864
2018-05-27T09:24:39.389Z,97867
2018-05-27T09:27:19.714Z,97866
2018-05-27T09:30:00.035Z,97858
2018-05-27T09:32:40.489Z,97856
2018-05-27T09:35:21.634Z,97857
2018-05-27T09:38:02.089Z,97853
2018-05-27T09:40:42.533Z,97854
2018-05-27T09:43:24.713Z,97852
2018-05-27T09:46:05.140Z,97857
2018-05-27T09:48:45.516Z,97858
2018-05-27T09:51:26.685Z,97860
2018-05-27T09:54:07.361Z,97854
2018-05-27T09:56:47.919Z,97852
2018-05-27T09:59:29.100Z,97850
2018-05-27T10:02:09.443Z,97859
2018-05-27T10:04:49.828Z,97852
2018-05-27T10:07:30.180Z,97846
2018-05-27T10:10:10.628Z,97852
2018-05-27T10:12:51.106Z,97849
2018-05-27T10:15:31.829Z,97846
2018-05-27T10:18:12.205Z,97855
2018-05-27T10:20:54.293Z,97849
2018-05-27T10:23:34.622Z,97858
2018-05-27T10:26:15.078Z,97854
2018-05-27T10:28:57.064Z,97842
2018-05-27T10:31:37.544Z,97832
2018-05-27T10:34:17.716Z,97840
2018-05-27T10:36:58.168Z,97845
2018-05-27T10:39:38.507Z,97842
2018-05-27T10:42:19.731Z,97841
2018-05-27T10:45:00.085Z,97832
2018-05-27T10:47:40.534Z,97830
2018-05-27T10:50:21.860Z,97836
2018-05-27T10:53:02.235Z,97834
2018-05-27T10:55:42.556Z,97836
2018-05-27T10:58:23.789Z,97828
2018-05-27T11:01:14.097Z,97832
2018-05-27T11:03:54.901Z,97830
2018-05-27T11:06:35.704Z,97819
2018-05-27T11:09:16.172Z,97820
2018-05-27T11:11:57.345Z,97828
2018-05-27T11:14:37.960Z,97821
2018-05-27T11:17:25.064Z,97826
2018-05-27T11:20:05.556Z,97811
2018-05-27T11:22:46.048Z,97811
2018-05-27T11:25:28.215Z,97814
2018-05-27T11:28:08.601Z,97824
2018-05-27T11:30:49.944Z,97806
2018-05-27T11:33:30.550Z,97805
2018-05-27T11:36:11.024Z,97804
2018-05-27T11:38:51.529Z,97806
2018-05-27T11:41:32.966Z,97803
2018-05-27T11:44:13.319Z,97800
2018-05-27T11:46:54.875Z,97787
2018-05-27T11:49:35.318Z,97792
2018-05-27T11:52:16.453Z,97786
2018-05-27T11:54:57.677Z,97778
2018-05-27T11:57:38.008Z,97784
2018-05-27T12:00:18.303Z,97779
2018-05-27T12:02:58.504Z,97788
2018-05-27T12:05:38.833Z,97789
2018-05-27T12:08:19.367Z,97795
2018-05-27T12:10:59.734Z,97791
2018-05-27T12:13:40.090Z,97794
2018-05-27T12:16:20.532Z,97784
2018-05-27T12:19:01.041Z,97778
2018-05-27T12:21:41.505Z,97781
2018-05-27T12:24:21.972Z,97780
2018-05-27T12:27:02.349Z,97777
2018-05-27T12:29:42.764Z,97765
2018-05-27T12:32:23.784Z,97758
2018-05-27T12:35:04.629Z,97757
2018-05-27T12:37:45.107Z,97759
2018-05-27T12:40:26.910Z,97760
2018-05-27T12:43:10.296Z,97758
2018-05-27T12:45:50.669Z,97743
2018-05-27T12:48:31.524Z,97732
2018-05-27T12:51:11.996Z,97733
2018-05-27T12:53:52.333Z,97728
2018-05-27T12:56:32.752Z,97721
2018-05-27T12:59:13.051Z,97715
2018-05-27T13:01:53.889Z,97700
2018-05-27T13:04:34.193Z,97707
2018-05-27T13:07:14.664Z,97705
2018-05-27T13:09:55.481Z,97701
2018-05-27T13:12:35.945Z,97707
2018-05-27T13:15:16.444Z,97707
2018-05-27T13:17:56.696Z,97695
2018-05-27T13:20:37.230Z,97704
2018-05-27T13:23:21.857Z,97704
2018-05-27T13:26:02.989Z,97714
2018-05-27T13:28:43.462Z,97700
2018-05-27T13:31:25.286Z,97699
2018-05-27T13:34:05.770Z,97693
2018-05-27T13:36:46.658Z,97699
2018-05-27T13:39:27.462Z,97702
2018-05-27T13:42:07.815Z,97695
2018-05-27T13:44:48.263Z,97703
2018-05-27T13:47:28.784Z,97709
2018-05-27T13:50:09.264Z,97711
2018-05-27T13:52:49.846Z,97712
2018-05-27T13:55:33.145Z,97718
2018-05-27T13:58:13.473Z,97711
2018-05-27T14:00:54.154Z,97716
2018-05-27T14:03:34.490Z,97721
2018-05-27T14:06:15.302Z,97729
2018-05-27T14:08:56.105Z,97720
2018-05-27T14:11:36.421Z,97712
2018-05-27T14:14:17.042Z,97716
2018-05-27T14:16:58.128Z,97713
2018-05-27T14:19:39.220Z,97715
2018-05-27T14:22:20.353Z,97709
2018-05-27T14:25:00.702Z,97703
2018-05-27T14:27:41.073Z,97706
2018-05-27T14:30:21.389Z,97706
2018-05-27T14:33:02.518Z,97696
2018-05-27T14:35:42.828Z,97691
2018-05-27T14:38:25.129Z,97692
2018-05-27T14:41:05.572Z,97685
2018-05-27T14:43:47.104Z,97689
2018-05-27T14:46:28.228Z,97684
2018-05-27T14:49:08.601Z,97681
2018-05-27T14:51:48.977Z,97691
2018-05-27T14:54:29.317Z,97686
2018-05-27T14:57:15.057Z,97685
2018-05-27T14:59:55.962Z,97684
2018-05-27T15:02:36.275Z,97681
2018-05-27T15:05:16.624Z,97682
2018-05-27T15:07:59.324Z,97685
2018-05-27T15:10:39.764Z,97694
2018-05-27T15:13:20.082Z,97689
2018-05-27T15:16:01.069Z,97692
2018-05-27T15:18:41.524Z,97687
2018-05-27T15:21:22.360Z,97690
2018-05-27T15:24:03.662Z,97679
2018-05-27T15:26:44.020Z,97683
2018-05-27T15:29:25.901Z,97678
2018-05-27T15:32:06.253Z,97687
2018-05-27T15:34:46.591Z,97684
2018-05-27T15:37:28.983Z,97687
2018-05-27T15:40:11.236Z,97694
2018-05-27T15:42:52.344Z,97684
2018-05-27T15:45:33.624Z,97668
2018-05-27T15:48:14.455Z,97695
2018-05-27T15:50:56.013Z,97689
2018-05-27T15:53:36.361Z,97698
2018-05-27T15:56:16.769Z,97725
2018-05-27T15:58:57.901Z,97724
2018-05-27T16:01:38.444Z,97719
2018-05-27T16:04:18.784Z,97712
2018-05-27T16:06:59.889Z,97727
2018-05-27T16:09:40.858Z,97728
2018-05-27T16:15:41.956Z,97745
2018-05-27T16:18:22.405Z,97752
2018-05-27T16:21:02.857Z,97742
2018-05-27T16:23:44.135Z,97729
2018-05-27T16:26:25.171Z,97732
2018-05-27T16:29:05.530Z,97714
2018-05-27T16:31:45.888Z,97712
2018-05-27T16:34:28.892Z,97710
2018-05-27T16:37:09.228Z,97722
2018-05-27T16:39:49.718Z,97704
2018-05-27T16:42:31.068Z,97691
2018-05-27T16:45:11.521Z,97681
2018-05-27T16:47:51.888Z,97689
2018-05-27T16:50:32.255Z,97693
2018-05-27T16:53:12.633Z,97687
2018-05-27T16:55:53.012Z,97682
2018-05-27T16:58:34.440Z,97678
2018-05-27T17:01:14.777Z,97684
2018-05-27T17:03:55.640Z,97681
2018-05-27T17:06:36.181Z,97675
2018-05-27T17:09:16.512Z,97680
2018-05-27T17:11:57.460Z,97680
2018-05-27T17:14:37.817Z,97680
2018-05-27T17:17:18.185Z,97694
2018-05-27T17:19:59.704Z,97695
2018-05-27T17:22:40.088Z,97692
2018-05-27T17:25:20.723Z,97694
2018-05-27T17:28:00.924Z,97695
2018-05-27T17:30:41.318Z,97695
2018-05-27T17:33:22.437Z,97694
2018-05-27T17:36:02.790Z,97695
2018-05-27T17:38:44.296Z,97700
2018-05-27T17:41:25.764Z,97692
2018-05-27T17:44:06.288Z,97699
2018-05-27T17:46:46.759Z,97700
2018-05-27T17:49:29.009Z,97709
2018-05-27T17:52:09.297Z,97694
2018-05-27T17:54:49.652Z,97692
2018-05-27T17:57:30.222Z,97703
2018-05-27T18:00:10.532Z,97694
2018-05-27T18:02:51.055Z,97700
2018-05-27T18:05:31.443Z,97707
2018-05-27T18:08:11.891Z,97701
2018-05-27T18:10:52.310Z,97702
2018-05-27T18:13:35.100Z,97705
2018-05-27T18:16:15.509Z,97696
2018-05-27T18:18:57.181Z,97696
2018-05-27T18:21:38.150Z,97701
2018-05-27T18:24:18.622Z,97697
2018-05-27T18:27:00.080Z,97705
2018-05-27T18:29:40.419Z,97702
2018-05-27T18:32:20.900Z,97706
2018-05-27T18:35:01.326Z,97705
2018-05-27T18:37:42.450Z,97707
2018-05-27T18:40:29.304Z,97718
2018-05-27T18:43:10.024Z,97717
2018-05-27T18:45:51.015Z,97723
2018-05-27T18:48:31.365Z,97736
2018-05-27T18:51:11.615Z,97737
2018-05-27T18:53:52.048Z,97739
2018-05-27T18:56:33.309Z,97728
2018-05-27T18:59:13.841Z,97733
2018-05-27T19:01:55.281Z,97731
2018-05-27T19:04:35.701Z,97733
2018-05-27T19:07:21.178Z,97729
2018-05-27T19:10:01.571Z,97739
2018-05-27T19:12:41.889Z,97740
2018-05-27T19:15:22.226Z,97746
2018-05-27T19:18:02.648Z,97750
2018-05-27T19:20:43.020Z,97746
2018-05-27T19:23:23.648Z,97744
2018-05-27T19:26:03.881Z,97740
2018-05-27T19:28:44.244Z,97743
2018-05-27T19:31:24.617Z,97746
2018-05-27T19:34:05.679Z,97754
2018-05-27T19:36:46.045Z,97738
2018-05-27T19:39:28.449Z,97743
2018-05-27T19:42:08.810Z,97741
2018-05-27T19:44:49.225Z,97744
2018-05-27T19:47:30.072Z,97748
2018-05-27T19:50:10.537Z,97739
2018-05-27T19:52:50.904Z,97746
2018-05-27T19:55:33.476Z,97745
2018-05-27T19:58:15.095Z,97753
2018-05-27T20:00:55.367Z,97753
2018-05-27T20:03:35.741Z,97766
2018-05-27T20:06:16.136Z,97762
2018-05-27T20:08:57.458Z,97753
2018-05-27T20:11:38.951Z,97760
2018-05-27T20:14:19.342Z,97761
2018-05-27T20:17:01.165Z,97761
2018-05-27T20:19:41.556Z,97762
2018-05-27T20:22:22.685Z,97754
2018-05-27T20:25:03.302Z,97767
2018-05-27T20:27:43.831Z,97754
2018-05-27T20:30:24.283Z,97762
2018-05-27T20:33:05.557Z,97765
2018-05-27T20:35:45.928Z,97758
2018-05-27T20:38:26.960Z,97770
2018-05-27T20:41:07.281Z,97773
2018-05-27T20:43:48.454Z,97755
2018-05-27T20:46:28.854Z,97758
2018-05-27T20:49:09.304Z,97749
2018-05-27T20:51:49.804Z,97752
2018-05-27T20:54:30.790Z,97756
2018-05-27T20:57:11.196Z,97765
2018-05-27T20:59:51.620Z,97758
2018-05-27T21:02:32.251Z,97754
2018-05-27T21:05:12.772Z,97750
2018-05-27T21:07:53.089Z,97748
2018-05-27T21:10:34.390Z,97751
2018-05-27T21:13:14.727Z,97769
2018-05-27T21:15:55.145Z,97766
2018-05-27T21:18:35.723Z,97762
2018-05-27T21:21:16.097Z,97773
2018-05-27T21:23:57.000Z,97767
2018-05-27T21:26:37.541Z,97776
2018-05-27T21:29:18.099Z,97771
2018-05-27T21:31:58.640Z,97775
2018-05-27T21:34:39.793Z,97777
2018-05-27T21:37:20.291Z,97784
2018-05-27T21:40:01.229Z,97781
2018-05-27T21:42:42.638Z,97777
2018-05-27T21:45:22.997Z,97762
2018-05-27T21:48:03.474Z,97773
2018-05-27T21:50:43.739Z,97773
2018-05-27T21:53:24.201Z,97782
2018-05-27T21:56:04.562Z,97772
2018-05-27T21:58:45.086Z,97772
2018-05-27T22:01:25.408Z,97772
2018-05-27T22:04:05.801Z,97780
2018-05-27T22:06:46.876Z,97780
2018-05-27T22:09:28.195Z,97784
2018-05-27T22:12:08.619Z,97774
2018-05-27T22:14:49.076Z,97783
2018-05-27T22:17:29.660Z,97772
2018-05-27T22:20:10.052Z,97775
2018-05-27T22:22:50.388Z,97777
2018-05-27T22:25:31.055Z,97779
2018-05-27T22:28:11.394Z,97782
2018-05-27T22:30:51.864Z,97779
2018-05-27T22:33:32.290Z,97780
2018-05-27T22:36:12.613Z,97776
2018-05-27T22:38:52.916Z,97781
2018-05-27T22:41:34.133Z,97780
2018-05-27T22:44:14.551Z,97783
2018-05-27T22:46:54.860Z,97794
2018-05-27T22:49:35.546Z,97791
2018-05-27T22:52:15.948Z,97781
2018-05-27T22:54:56.896Z,97784
2018-05-27T22:57:37.215Z,97783
2018-05-27T23:00:17.776Z,97778
2018-05-27T23:02:58.585Z,97781
2018-05-27T23:05:38.915Z,97770
2018-05-27T23:08:19.272Z,97784
2018-05-27T23:10:59.725Z,97779
2018-05-27T23:13:40.328Z,97781
2018-05-27T23:16:20.634Z,97787
2018-05-27T23:19:01.834Z,97793
2018-05-27T23:21:42.320Z,97794
2018-05-27T23:24:22.934Z,97783
2018-05-27T23:27:03.273Z,97778
2018-05-27T23:29:43.733Z,97776
2018-05-27T23:32:24.076Z,97779
2018-05-27T23:35:04.403Z,97774
2018-05-27T23:37:44.589Z,97771
2018-05-27T23:40:25.046Z,97787
2018-05-27T23:43:05.456Z,97779
2018-05-27T23:45:45.657Z,97776
2018-05-27T23:48:26.889Z,97786
2018-05-27T23:51:07.227Z,97785
2018-05-27T23:53:47.663Z,97794
2018-05-27T23:56:28.557Z,97795
2018-05-27T23:59:09.605Z,97784
